Time;durP1;ratioP1;P1;durP2;ratioP2;P2;SDS_P1;SDS_P2;PMS_P1;PMS_P2;Temp;Humidity;BMP_temperature;BMP_pressure;BME280_temperature;BME280_humidity;BME280_pressure;Samples;Min_cycle;Max_cycle;Signal;HPM_P1;HPM_P2
2023/08/12 00:00:29;;;;;;;;;11.67;10.67;;;;;23.65;65.16;100789.63;5037997;28;45351;-71
2023/08/12 00:02:55;;;;;;;;;14.33;12.33;;;;;23.54;64.74;100792.53;5037887;28;46167;-72
2023/08/12 00:05:21;;;;;;;;;11.00;10.00;;;;;23.43;64.45;100781.19;5037878;28;45546;-71
2023/08/12 00:07:48;;;;;;;;;12.00;11.00;;;;;23.39;65.40;100775.03;5038081;28;45259;-71
2023/08/12 00:10:15;;;;;;;;;12.00;12.00;;;;;23.27;65.74;100769.06;5038515;28;45252;-71
2023/08/12 00:12:41;;;;;;;;;13.00;12.33;;;;;23.33;66.00;100787.59;5037722;28;46082;-72
2023/08/12 00:15:08;;;;;;;;;11.00;10.00;;;;;23.27;66.16;100779.72;5037544;28;45518;-72
2023/08/12 00:17:35;;;;;;;;;14.67;14.00;;;;;23.21;65.64;100762.06;5037338;28;45439;-71
2023/08/12 00:20:05;;;;;;;;;13.00;12.67;;;;;23.30;65.72;100782.31;5036427;28;45474;-72
2023/08/12 00:22:31;;;;;;;;;11.00;10.67;;;;;23.33;65.99;100776.94;5037283;28;45297;-69
2023/08/12 00:24:56;;;;;;;;;14.00;11.67;;;;;23.32;65.93;100768.06;5036238;28;45210;-70
2023/08/12 00:27:22;;;;;;;;;13.33;12.33;;;;;23.32;65.86;100756.53;5036416;28;45472;-70
2023/08/12 00:29:48;;;;;;;;;11.33;11.33;;;;;23.35;65.38;100756.47;5037798;28;45479;-70
2023/08/12 00:32:14;;;;;;;;;11.33;10.33;;;;;23.29;65.69;100748.59;5037061;28;46225;-70
2023/08/12 00:34:39;;;;;;;;;11.33;10.00;;;;;23.26;65.73;100748.63;5037267;28;45281;-70
2023/08/12 00:37:05;;;;;;;;;12.67;11.67;;;;;23.15;65.79;100741.72;5037414;28;45383;-70
2023/08/12 00:39:31;;;;;;;;;11.33;11.33;;;;;23.12;65.72;100730.25;5037612;28;45319;-70
2023/08/12 00:41:56;;;;;;;;;13.33;11.33;;;;;23.22;65.72;100747.84;5037259;28;45415;-70
2023/08/12 00:44:22;;;;;;;;;11.33;11.33;;;;;22.88;66.04;100748.44;5037320;28;45296;-70
2023/08/12 00:46:48;;;;;;;;;12.00;11.67;;;;;22.59;67.11;100754.25;5037584;28;45630;-70
2023/08/12 00:49:15;;;;;;;;;16.33;14.33;;;;;22.59;67.62;100756.91;5037836;28;45155;-70
2023/08/12 00:51:43;;;;;;;;;11.67;11.67;;;;;22.55;67.51;100748.09;5036927;28;45409;-70
2023/08/12 00:54:14;;;;;;;;;12.33;10.00;;;;;22.55;68.19;100752.53;5037073;28;45521;-70
2023/08/12 00:56:40;;;;;;;;;13.33;12.67;;;;;22.51;67.85;100742.84;5037161;28;45220;-70
2023/08/12 00:59:08;;;;;;;;;13.00;13.00;;;;;22.56;68.48;100754.28;5036097;28;45515;-70
2023/08/12 01:01:35;;;;;;;;;11.33;11.00;;;;;22.57;68.44;100743.59;5036471;28;46256;-71
2023/08/12 01:04:01;;;;;;;;;12.00;11.33;;;;;22.48;68.19;100733.09;5037092;28;45468;-71
2023/08/12 01:06:27;;;;;;;;;12.33;12.00;;;;;22.50;68.50;100727.75;5035828;28;45357;-71
2023/08/12 01:08:53;;;;;;;;;15.00;12.33;;;;;22.56;68.77;100736.53;5037457;28;45383;-71
2023/08/12 01:11:29;;;;;;;;;13.33;11.67;;;;;22.59;67.82;100728.47;5037277;28;45364;-71
2023/08/12 01:14:20;;;;;;;;;15.33;14.00;;;;;22.78;67.39;100730.81;5036855;28;45482;-71
2023/08/12 01:16:49;;;;;;;;;11.33;9.67;;;;;22.70;66.79;100717.66;4997906;28;45495;-71
2023/08/12 01:19:29;;;;;;;;;14.33;10.00;;;;;22.71;66.64;100719.41;5037658;28;45422;-71
2023/08/12 01:21:59;;;;;;;;;13.33;12.67;;;;;22.75;66.99;100707.78;5036719;28;45971;-72
2023/08/12 01:24:25;;;;;;;;;14.67;13.33;;;;;22.75;66.41;100704.25;5036967;28;45248;-73
2023/08/12 01:26:51;;;;;;;;;15.67;12.67;;;;;22.75;66.53;100693.59;5036793;28;45414;-73
2023/08/12 01:29:18;;;;;;;;;11.67;10.67;;;;;22.77;66.15;100700.66;5035980;28;45430;-73
2023/08/12 01:32:24;;;;;;;;;10.00;9.67;;;;;22.61;67.19;100685.88;5035876;28;46127;-73
2023/08/12 01:35:05;;;;;;;;;13.00;11.00;;;;;22.64;67.46;100699.09;4998436;28;45388;-73
2023/08/12 01:37:33;;;;;;;;;16.67;13.67;;;;;22.55;67.87;100704.63;5035318;28;45280;-73
2023/08/12 01:40:04;;;;;;;;;14.00;11.67;;;;;22.46;68.17;100687.00;5036977;28;45461;-73
2023/08/12 01:42:30;;;;;;;;;11.33;10.00;;;;;22.57;67.13;100705.47;5038110;28;46081;-74
2023/08/12 01:44:56;;;;;;;;;14.00;12.33;;;;;22.61;67.56;100702.72;5038772;28;45499;-73
2023/08/12 01:47:21;;;;;;;;;12.33;12.00;;;;;22.51;67.36;100710.91;5040537;28;45541;-74
2023/08/12 01:49:47;;;;;;;;;11.67;11.33;;;;;22.37;67.69;100701.34;5040417;28;45479;-74
2023/08/12 01:52:12;;;;;;;;;13.00;11.00;;;;;22.29;67.33;100702.38;5039955;28;45454;-73
2023/08/12 01:54:38;;;;;;;;;12.00;11.00;;;;;22.23;67.99;100700.66;5039987;28;45299;-74
2023/08/12 01:57:05;;;;;;;;;9.67;8.67;;;;;22.20;68.79;100728.19;5039971;28;45635;-74
2023/08/12 01:59:37;;;;;;;;;13.00;11.33;;;;;22.09;69.06;100726.59;5038869;28;45607;-73
2023/08/12 02:02:04;;;;;;;;;12.00;11.67;;;;;21.97;68.66;100723.22;5037980;28;45464;-73
2023/08/12 02:04:29;;;;;;;;;14.67;12.00;;;;;22.05;68.57;100739.94;5039480;28;45495;-73
2023/08/12 02:06:55;;;;;;;;;11.67;10.00;;;;;21.97;68.29;100736.50;5039584;28;45339;-73
2023/08/12 02:09:22;;;;;;;;;12.33;12.00;;;;;22.00;68.61;100728.50;5038963;28;45417;-74
2023/08/12 02:11:48;;;;;;;;;15.67;13.67;;;;;21.81;68.45;100687.09;5040147;28;45548;-73
2023/08/12 02:14:14;;;;;;;;;15.00;13.00;;;;;22.16;68.52;100738.88;5039697;28;45415;-73
2023/08/12 02:16:40;;;;;;;;;14.00;12.33;;;;;22.16;68.87;100736.22;5039634;28;45395;-73
2023/08/12 02:19:05;;;;;;;;;10.33;9.00;;;;;22.17;67.99;100716.72;5039888;28;45257;-74
2023/08/12 02:21:31;;;;;;;;;11.33;9.00;;;;;22.18;67.28;100708.72;5039356;28;46129;-74
2023/08/12 02:23:57;;;;;;;;;12.67;10.00;;;;;22.28;67.81;100730.75;5039628;28;45351;-73
2023/08/12 02:26:22;;;;;;;;;12.00;11.67;;;;;22.17;68.71;100728.22;5039933;28;45423;-73
2023/08/12 02:28:48;;;;;;;;;13.33;11.00;;;;;22.16;68.80;100747.78;5038400;28;45577;-74
2023/08/12 02:31:16;;;;;;;;;11.33;10.33;;;;;22.17;68.07;100743.31;5037598;28;46616;-73
2023/08/12 02:33:43;;;;;;;;;7.67;7.00;;;;;22.22;68.00;100738.78;5039414;28;45430;-73
2023/08/12 02:36:08;;;;;;;;;12.67;11.67;;;;;22.27;67.82;100738.78;5039411;28;45268;-73
2023/08/12 02:38:34;;;;;;;;;11.33;11.33;;;;;22.11;67.73;100732.78;5039568;28;45250;-74
2023/08/12 02:41:00;;;;;;;;;15.67;12.67;;;;;22.11;68.54;100740.75;5037807;28;45882;-74
2023/08/12 02:43:25;;;;;;;;;12.00;11.33;;;;;22.00;67.76;100724.94;5039184;28;45487;-74
2023/08/12 02:45:51;;;;;;;;;14.33;12.33;;;;;21.94;68.32;100709.06;5039756;28;45201;-73
2023/08/12 02:48:17;;;;;;;;;13.00;11.67;;;;;21.99;68.43;100717.88;5039651;28;45530;-74
2023/08/12 02:50:42;;;;;;;;;9.00;8.33;;;;;22.02;68.09;100726.69;5039252;28;45287;-74
2023/08/12 02:53:08;;;;;;;;;11.33;10.67;;;;;22.17;67.46;100740.66;5038889;28;45440;-74
2023/08/12 02:55:34;;;;;;;;;13.33;12.67;;;;;22.17;67.74;100733.56;5038952;28;45316;-73
2023/08/12 02:58:01;;;;;;;;;13.00;11.67;;;;;22.07;67.85;100721.28;5037932;28;45634;-74
2023/08/12 03:00:27;;;;;;;;;12.67;11.00;;;;;22.05;68.28;100723.97;5038190;28;45418;-74
2023/08/12 03:02:54;;;;;;;;;11.67;11.33;;;;;22.11;68.05;100730.13;5039153;28;45466;-74
2023/08/12 03:05:20;;;;;;;;;13.33;12.33;;;;;22.00;68.14;100709.88;5038835;28;45415;-74
2023/08/12 03:07:46;;;;;;;;;12.67;12.33;;;;;21.93;69.12;100716.19;5039019;28;45501;-73
2023/08/12 03:10:12;;;;;;;;;14.33;13.67;;;;;21.88;69.31;100728.63;5038895;28;45495;-73
2023/08/12 03:12:38;;;;;;;;;11.67;11.00;;;;;21.73;68.66;100718.25;5037680;28;45594;-73
2023/08/12 03:15:05;;;;;;;;;12.00;11.67;;;;;21.73;69.01;100736.84;5038695;28;45408;-74
2023/08/12 03:17:31;;;;;;;;;12.33;10.67;;;;;21.53;69.97;100708.72;5039041;28;45363;-74
2023/08/12 03:19:59;;;;;;;;;12.67;11.67;;;;;21.30;69.84;100685.06;5037614;28;46547;-74
2023/08/12 03:22:25;;;;;;;;;12.67;12.00;;;;;21.54;70.24;100715.78;5038956;28;45564;-74
2023/08/12 03:24:51;;;;;;;;;9.33;7.00;;;;;21.63;69.62;100728.97;5038631;28;45360;-74
2023/08/12 03:27:16;;;;;;;;;14.00;11.00;;;;;21.64;69.57;100721.88;5038609;28;45395;-73
2023/08/12 03:29:42;;;;;;;;;11.67;10.67;;;;;21.69;69.98;100721.84;5038502;28;45407;-74
2023/08/12 03:32:08;;;;;;;;;14.00;12.00;;;;;21.68;69.45;100712.97;5037768;28;45498;-74
2023/08/12 03:34:33;;;;;;;;;12.00;10.00;;;;;21.69;69.22;100681.97;5037324;28;45388;-74
2023/08/12 03:36:59;;;;;;;;;16.00;11.33;;;;;21.80;69.40;100706.59;5038654;28;45423;-73
2023/08/12 03:39:25;;;;;;;;;12.67;12.67;;;;;21.68;69.28;100690.81;5038572;28;46060;-73
2023/08/12 03:41:50;;;;;;;;;14.00;11.67;;;;;21.85;69.06;100718.94;5038181;28;45486;-73
2023/08/12 03:44:16;;;;;;;;;15.00;14.33;;;;;21.80;68.45;100695.97;5038355;28;45445;-74
2023/08/12 03:46:42;;;;;;;;;10.67;10.67;;;;;21.82;69.00;100718.09;5038452;28;45546;-73
2023/08/12 03:49:07;;;;;;;;;13.00;11.00;;;;;21.84;69.27;100714.53;5038162;28;45240;-73
2023/08/12 03:51:33;;;;;;;;;18.00;14.33;;;;;21.82;68.69;100703.00;5038278;28;45418;-73
2023/08/12 03:53:59;;;;;;;;;12.67;11.67;;;;;21.90;69.06;100716.19;5038403;28;45407;-73
2023/08/12 03:56:25;;;;;;;;;11.67;10.67;;;;;21.85;69.13;100715.41;5038521;28;45906;-73
2023/08/12 03:58:51;;;;;;;;;12.33;12.00;;;;;21.74;68.82;100698.72;5037930;28;45400;-73
2023/08/12 04:01:17;;;;;;;;;16.00;11.67;;;;;21.98;67.94;100732.06;5041210;28;45325;-73
2023/08/12 04:03:42;;;;;;;;;12.33;12.00;;;;;21.93;68.88;100731.25;5038024;28;45374;-74
2023/08/12 04:06:08;;;;;;;;;12.67;11.67;;;;;21.96;68.35;100734.72;5037085;28;45327;-74
2023/08/12 04:08:34;;;;;;;;;14.00;12.33;;;;;21.85;68.32;100718.94;5037884;28;46469;-74
2023/08/12 04:11:00;;;;;;;;;12.67;10.67;;;;;21.94;68.34;100739.19;5038093;28;45608;-74
2023/08/12 04:13:25;;;;;;;;;15.00;12.67;;;;;21.91;68.41;100738.38;5038441;28;45331;-74
2023/08/12 04:15:53;;;;;;;;;12.33;12.33;;;;;21.91;67.63;100725.09;5038182;28;45476;-73
2023/08/12 04:18:19;;;;;;;;;11.00;11.00;;;;;21.98;68.04;100740.91;5037782;28;45976;-73
2023/08/12 04:20:50;;;;;;;;;12.00;11.00;;;;;21.70;67.70;100694.34;5037400;28;45343;-73
2023/08/12 04:23:16;;;;;;;;;13.33;12.00;;;;;21.86;67.94;100706.50;5037566;28;45560;-74
2023/08/12 04:25:46;;;;;;;;;16.00;15.00;;;;;21.78;68.26;100706.63;5037742;28;45336;-74
2023/08/12 04:28:12;;;;;;;;;12.00;11.00;;;;;21.84;68.83;100733.16;5037390;28;46251;-74
2023/08/12 04:30:45;;;;;;;;;11.67;9.33;;;;;;;;5036868;28;45641;-74
2023/08/12 04:33:12;;;;;;;;;12.67;10.00;;;;;21.80;68.80;100727.88;5036975;28;45421;-73
2023/08/12 04:35:38;;;;;;;;;10.67;10.67;;;;;;;;5036361;28;45551;-73
2023/08/12 04:38:04;;;;;;;;;13.33;12.67;;;;;21.62;69.10;100718.34;5035959;28;46394;-73
2023/08/12 04:40:29;;;;;;;;;15.33;13.67;;;;;21.60;68.76;100723.69;5037642;28;45315;-73
2023/08/12 04:42:55;;;;;;;;;13.33;12.67;;;;;21.48;68.82;100720.31;5037471;28;45471;-73
2023/08/12 04:45:20;;;;;;;;;14.33;12.67;;;;;21.40;69.31;100707.09;5037713;28;45328;-73
2023/08/12 04:47:46;;;;;;;;;13.33;13.33;;;;;21.37;70.02;100707.13;5037317;28;46437;-73
2023/08/12 04:50:12;;;;;;;;;15.67;13.00;;;;;21.27;70.08;100717.00;5037386;28;46205;-73
2023/08/12 04:52:37;;;;;;;;;13.67;11.67;;;;;20.91;70.82;100666.03;5037019;28;45525;-73
2023/08/12 04:55:04;;;;;;;;;12.00;11.00;;;;;21.26;70.86;100725.84;5035665;28;45584;-73
2023/08/12 04:57:30;;;;;;;;;17.00;13.33;;;;;21.30;69.79;100730.22;5035869;28;48199;-73
2023/08/12 04:59:55;;;;;;;;;14.33;14.33;;;;;21.34;70.11;100741.69;5035719;28;45445;-73
2023/08/12 05:02:21;;;;;;;;;15.00;14.00;;;;;21.34;69.88;100736.38;5036007;28;45573;-73
2023/08/12 05:04:51;;;;;;;;;15.67;13.00;;;;;21.29;70.46;100741.75;5036931;28;45554;-73
2023/08/12 05:07:17;;;;;;;;;15.33;13.00;;;;;21.30;70.46;100745.28;5036836;28;45261;-74
2023/08/12 05:09:44;;;;;;;;;11.33;11.33;;;;;21.34;69.93;100739.91;5036700;28;45505;-73
2023/08/12 05:12:10;;;;;;;;;15.00;13.67;;;;;21.37;69.87;100742.56;5035556;28;45457;-73
2023/08/12 05:14:37;;;;;;;;;14.67;13.67;;;;;21.41;69.55;100748.72;5037026;28;45704;-74
2023/08/12 05:17:03;;;;;;;;;14.00;13.67;;;;;21.39;69.55;100738.09;5036507;28;46333;-73
2023/08/12 05:19:28;;;;;;;;;17.00;14.33;;;;;21.36;69.38;100726.63;5035705;28;45442;-73
2023/08/12 05:21:54;;;;;;;;;11.67;11.33;;;;;21.47;69.21;100735.41;5035369;28;45534;-73
2023/08/12 05:24:19;;;;;;;;;15.00;12.00;;;;;21.52;69.52;100738.84;5036846;28;45641;-73
2023/08/12 05:26:45;;;;;;;;;12.67;11.00;;;;;21.63;69.38;100749.38;5036725;28;46468;-73
2023/08/12 05:29:11;;;;;;;;;13.33;13.33;;;;;21.66;68.69;100741.34;5035596;28;46110;-74
2023/08/12 05:31:37;;;;;;;;;10.67;10.67;;;;;21.70;68.18;100747.50;5036412;28;45553;-74
2023/08/12 05:34:03;;;;;;;;;19.00;14.00;;;;;21.71;68.56;100760.78;5037307;28;45521;-73
2023/08/12 05:36:29;;;;;;;;;1.00;0.00;;;;;21.55;68.96;100744.16;5034992;28;45431;-73
2023/08/12 05:38:54;;;;;;;;;12.00;11.67;;;;;21.65;68.74;100758.22;5036587;28;45475;-73
2023/08/12 05:41:20;;;;;;;;;10.33;9.33;;;;;21.62;68.17;100739.63;5036882;28;45436;-74
2023/08/12 05:43:47;;;;;;;;;11.33;10.33;;;;;21.77;67.88;100757.19;5035620;28;45463;-73
2023/08/12 05:46:12;;;;;;;;;9.67;9.67;;;;;21.77;67.78;100750.06;5036360;28;46306;-74
2023/08/12 05:48:38;;;;;;;;;10.00;9.67;;;;;21.73;67.90;100739.50;5034855;28;45484;-73
2023/08/12 05:51:03;;;;;;;;;12.00;9.67;;;;;21.62;68.09;100742.28;5036980;28;45366;-74
2023/08/12 05:53:29;;;;;;;;;9.67;9.33;;;;;21.47;68.67;100750.44;5036454;28;45392;-73
2023/08/12 05:55:55;;;;;;;;;12.33;9.67;;;;;21.59;68.49;100755.63;5034842;28;45359;-74
2023/08/12 05:58:20;;;;;;;;;14.33;12.67;;;;;21.58;68.31;100764.50;5035967;28;45481;-73
2023/08/12 06:00:46;;;;;;;;;13.00;12.00;;;;;21.47;68.47;100780.56;5035892;28;45696;-73
2023/08/12 06:03:12;;;;;;;;;15.33;13.67;;;;;21.40;68.80;100777.06;5036565;28;45616;-73
2023/08/12 06:05:40;;;;;;;;;12.33;10.67;;;;;21.36;68.98;100777.97;5035752;28;45363;-74
2023/08/12 06:08:05;;;;;;;;;20.67;16.00;;;;;21.26;69.60;100761.25;5036310;28;45435;-73
2023/08/12 06:10:31;;;;;;;;;14.00;13.33;;;;;21.22;68.90;100718.81;5034934;28;45512;-73
2023/08/12 06:12:57;;;;;;;;;12.67;11.67;;;;;21.90;67.75;100777.38;5036700;28;45505;-73
2023/08/12 06:15:22;;;;;;;;;15.33;13.33;;;;;21.90;67.69;100773.84;5036264;28;45491;-73
2023/08/12 06:17:48;;;;;;;;;10.33;10.00;;;;;22.17;66.98;100793.88;5036127;28;45358;-73
2023/08/12 06:20:14;;;;;;;;;11.33;9.67;;;;;22.40;65.75;100778.50;5036263;28;45474;-74
2023/08/12 06:22:39;;;;;;;;;12.00;11.33;;;;;22.78;65.24;100777.00;5036137;28;45345;-73
2023/08/12 06:25:05;;;;;;;;;11.33;11.00;;;;;23.11;64.30;100782.66;5034877;28;46378;-73
2023/08/12 06:27:31;;;;;;;;;11.67;11.67;;;;;23.59;63.07;100774.63;5036054;28;45411;-75
2023/08/12 06:29:56;;;;;;;;;12.33;11.33;;;;;23.87;63.20;100782.09;5037893;28;45256;-75
2023/08/12 06:32:22;;;;;;;;;15.33;14.67;;;;;24.15;61.16;100755.72;5039033;28;45315;-75
2023/08/12 06:34:47;;;;;;;;;12.33;10.33;;;;;26.11;59.36;100785.34;5037854;28;45483;-75
2023/08/12 06:37:13;;;;;;;;;10.00;10.00;;;;;28.34;52.43;100778.41;5039178;28;45520;-75
2023/08/12 06:39:39;;;;;;;;;13.00;12.00;;;;;30.11;48.48;100789.56;5037716;28;45502;-75
2023/08/12 06:42:04;;;;;;;;;12.67;12.00;;;;;31.51;45.63;100781.72;5039708;28;45216;-76
2023/08/12 06:44:30;;;;;;;;;13.33;12.33;;;;;32.88;42.03;100792.94;5039005;28;45400;-75
2023/08/12 06:46:56;;;;;;;;;15.33;14.67;;;;;33.87;40.15;100809.50;5039231;28;45236;-76
2023/08/12 06:49:21;;;;;;;;;11.00;11.00;;;;;34.39;38.31;100775.47;5039117;28;45390;-76
2023/08/12 06:51:47;;;;;;;;;15.67;13.33;;;;;35.13;37.69;100798.50;5037874;28;45548;-76
2023/08/12 06:54:12;;;;;;;;;11.67;10.67;;;;;35.96;36.19;100783.66;5038539;28;45404;-76
2023/08/12 06:56:38;;;;;;;;;10.00;9.33;;;;;36.63;35.88;100795.00;5037810;28;45544;-76
2023/08/12 06:59:04;;;;;;;;;9.00;9.00;;;;;37.29;34.05;100804.53;5039186;28;45273;-76
2023/08/12 07:01:29;;;;;;;;;10.50;9.00;;;;;37.88;33.30;100806.22;5038716;28;45951;-76
2023/08/12 07:03:55;;;;;;;;;8.67;8.33;;;;;38.27;31.64;100795.78;5038677;28;45548;-76
2023/08/12 07:06:22;;;;;;;;;9.00;8.00;;;;;38.92;31.67;100811.22;5038838;28;45327;-76
2023/08/12 07:08:48;;;;;;;;;10.33;9.67;;;;;39.45;30.37;100810.34;5038802;28;45465;-76
2023/08/12 07:11:13;;;;;;;;;8.00;7.33;;;;;39.74;29.26;100813.22;5039065;28;45422;-76
2023/08/12 07:13:39;;;;;;;;;8.00;7.00;;;;;39.93;28.79;100808.88;5039072;28;45404;-76
2023/08/12 07:16:05;;;;;;;;;7.67;7.67;;;;;40.57;29.07;100802.16;5038458;28;45387;-76
2023/08/12 07:18:31;;;;;;;;;6.67;6.00;;;;;40.88;27.40;100805.63;5038930;28;45293;-76
2023/08/12 07:20:58;;;;;;;;;7.00;7.00;;;;;41.40;27.32;100812.66;5038818;28;45411;-76
2023/08/12 07:23:24;;;;;;;;;7.33;6.33;;;;;41.60;28.76;100803.38;5038048;28;46239;-77
2023/08/12 07:25:50;;;;;;;;;9.67;9.33;;;;;41.88;26.12;100806.13;5037205;28;45339;-77
2023/08/12 07:28:16;;;;;;;;;7.33;7.00;;;;;41.22;27.20;100796.94;5038642;28;45843;-77
2023/08/12 07:30:41;;;;;;;;;6.33;6.33;;;;;41.34;26.43;100814.97;5038742;28;45406;-77
2023/08/12 07:33:07;;;;;;;;;8.00;8.00;;;;;41.93;26.86;100798.34;5038051;28;45632;-76
2023/08/12 07:35:33;;;;;;;;;14.33;13.33;;;;;42.51;26.03;100814.50;5036987;28;45523;-75
2023/08/12 07:37:59;;;;;;;;;6.67;6.00;;;;;42.97;25.95;100800.69;5038330;28;45571;-74
2023/08/12 07:40:24;;;;;;;;;6.33;6.33;;;;;43.78;24.42;100801.44;5038290;28;45525;-73
2023/08/12 07:42:50;;;;;;;;;7.33;7.00;;;;;44.14;25.31;100812.28;5037882;28;45359;-76
2023/08/12 07:45:16;;;;;;;;;8.67;8.33;;;;;44.51;23.97;100816.53;5038307;28;45299;-73
2023/08/12 07:47:41;;;;;;;;;7.33;6.33;;;;;44.32;23.66;100821.28;5038255;28;45393;-74
2023/08/12 07:50:07;;;;;;;;;9.33;8.33;;;;;43.46;24.60;100824.97;5037121;28;45510;-72
2023/08/12 07:52:33;;;;;;;;;5.33;4.67;;;;;43.21;24.68;100823.91;5037794;28;45616;-74
2023/08/12 07:54:58;;;;;;;;;9.00;7.33;;;;;43.67;24.82;100813.56;5037556;28;45510;-74
2023/08/12 07:57:24;;;;;;;;;5.00;5.00;;;;;44.17;24.57;100822.94;5037818;28;45517;-73
2023/08/12 07:59:51;;;;;;;;;7.33;6.67;;;;;44.20;23.46;100826.22;5038269;28;45297;-74
2023/08/12 08:02:16;;;;;;;;;8.00;7.00;;;;;43.69;23.99;100812.41;5036628;28;45387;-74
2023/08/12 08:04:42;;;;;;;;;8.00;8.00;;;;;43.59;24.40;100825.38;5038254;28;45427;-73
2023/08/12 08:07:08;;;;;;;;;7.67;7.33;;;;;44.11;24.13;100815.34;5037535;28;45510;-75
2023/08/12 08:09:34;;;;;;;;;8.00;7.33;;;;;43.87;24.48;100815.09;5036264;28;45301;-74
2023/08/12 08:12:00;;;;;;;;;8.00;8.00;;;;;43.19;25.05;100804.81;5035974;28;45324;-73
2023/08/12 08:14:27;;;;;;;;;6.00;6.00;;;;;44.13;24.05;100819.66;5037356;28;45455;-73
2023/08/12 08:16:53;;;;;;;;;7.67;7.00;;;;;44.23;24.41;100814.91;5036269;28;45277;-76
2023/08/12 08:19:19;;;;;;;;;9.00;8.00;;;;;44.49;24.31;100802.94;5037609;28;45356;-76
2023/08/12 08:21:44;;;;;;;;;5.33;5.33;;;;;45.14;22.99;100813.13;5036989;28;46124;-76
2023/08/12 08:24:12;;;;;;;;;7.00;6.33;;;;;45.62;23.42;100835.31;5037479;28;45344;-76
2023/08/12 08:26:40;;;;;;;;;11.00;10.67;;;;;46.18;22.19;100833.44;5037688;28;45446;-76
2023/08/12 08:29:06;;;;;;;;;9.67;6.67;;;;;46.37;23.34;100826.56;5036339;28;45632;-76
2023/08/12 08:31:32;;;;;;;;;7.00;7.00;;;;;46.82;21.18;100824.09;5036714;28;45976;-75
2023/08/12 08:33:58;;;;;;;;;7.67;7.67;;;;;47.10;22.03;100815.19;5037270;28;45233;-76
2023/08/12 08:36:24;;;;;;;;;8.00;6.33;;;;;46.78;22.09;100829.09;5037247;28;45354;-76
2023/08/12 08:38:50;;;;;;;;;7.00;7.00;;;;;45.84;22.63;100842.00;5037477;28;45610;-76
2023/08/12 08:41:16;;;;;;;;;6.00;6.00;;;;;45.66;22.64;100828.44;5036957;28;45540;-74
2023/08/12 08:43:46;;;;;;;;;8.67;8.00;;;;;44.15;23.92;100833.25;5035782;28;45514;-72
2023/08/12 08:46:15;;;;;;;;;6.00;6.00;;;;;43.61;24.51;100834.31;5036960;28;45652;-73
2023/08/12 08:48:42;;;;;;;;;6.00;5.67;;;;;43.19;24.85;100831.44;5037084;28;45346;-73
2023/08/12 08:51:10;;;;;;;;;6.33;6.00;;;;;42.51;25.51;100825.47;5035971;28;45428;-76
2023/08/12 08:53:38;;;;;;;;;13.33;13.00;;;;;42.32;26.47;100837.44;5035123;28;45360;-75
2023/08/12 08:56:07;;;;;;;;;8.00;8.00;;;;;43.37;25.66;100835.03;5036843;28;45589;-76
2023/08/12 08:58:34;;;;;;;;;8.67;8.00;;;;;43.65;25.10;100832.13;5035196;28;45372;-76
2023/08/12 09:01:00;;;;;;;;;6.67;6.67;;;;;43.69;24.62;100833.53;5035745;28;46096;-75
2023/08/12 09:03:26;;;;;;;;;7.67;6.67;;;;;44.29;23.65;100840.88;5036302;28;45264;-75
2023/08/12 09:05:55;;;;;;;;;5.00;4.67;;;;;44.75;23.34;100838.63;5036656;28;45333;-75
2023/08/12 09:08:22;;;;;;;;;6.67;6.33;;;;;44.49;23.29;100830.50;5035180;28;45259;-75
2023/08/12 09:10:48;;;;;;;;;7.33;7.33;;;;;43.39;24.54;100829.38;5034137;28;47590;-76
2023/08/12 09:13:15;;;;;;;;;8.67;8.00;;;;;43.21;24.63;100841.25;5035908;28;45410;-76
2023/08/12 09:15:42;;;;;;;;;7.00;6.33;;;;;43.18;24.94;100825.09;5037256;28;45408;-74
2023/08/12 09:18:07;;;;;;;;;8.33;6.67;;;;;43.03;24.78;100838.53;5037559;28;45379;-74
2023/08/12 09:20:34;;;;;;;;;6.33;5.67;;;;;43.17;25.22;100848.09;5035720;28;46223;-74
2023/08/12 09:23:00;;;;;;;;;7.67;7.67;;;;;43.12;25.25;100844.97;5035231;28;45494;-74
2023/08/12 09:25:30;;;;;;;;;6.33;6.33;;;;;42.77;25.56;100843.06;5035533;28;45346;-74
2023/08/12 09:27:59;;;;;;;;;9.33;7.67;;;;;43.38;25.71;100845.03;5035567;28;45310;-75
2023/08/12 09:30:29;;;;;;;;;6.67;6.00;;;;;44.34;24.89;100837.63;5035666;28;45513;-74
2023/08/12 09:33:00;;;;;;;;;7.33;7.33;;;;;44.62;24.23;100832.72;5034793;28;45426;-75
2023/08/12 09:35:42;;;;;;;;;6.33;6.33;;;;;44.17;23.78;100847.72;5035407;28;45526;-75
2023/08/12 09:38:13;;;;;;;;;6.00;5.67;;;;;44.55;23.80;100840.81;5034402;28;45336;-75
2023/08/12 09:40:39;;;;;;;;;6.33;6.33;;;;;44.20;23.81;100859.28;5036084;28;45589;-75
2023/08/12 09:43:05;;;;;;;;;5.67;5.67;;;;;43.68;24.54;100838.19;5036508;28;45520;-75
2023/08/12 09:45:32;;;;;;;;;2.67;2.00;;;;;43.61;24.16;100848.06;5034943;28;45266;-74
2023/08/12 09:47:58;;;;;;;;;6.00;5.33;;;;;43.21;24.70;100855.00;5035714;28;45460;-75
2023/08/12 09:50:25;;;;;;;;;6.00;5.67;;;;;43.85;23.60;100843.78;5035380;28;45541;-75
2023/08/12 09:52:53;;;;;;;;;7.00;7.00;;;;;44.36;23.78;100855.72;5035453;28;45544;-75
2023/08/12 09:55:21;;;;;;;;;4.67;4.67;;;;;44.39;23.21;100849.88;5035770;28;45432;-76
2023/08/12 09:57:54;;;;;;;;;6.00;6.00;;;;;44.95;23.56;100857.59;5035848;28;45434;-75
2023/08/12 10:00:22;;;;;;;;;4.00;4.00;;;;;45.35;23.23;100864.19;5035895;28;46311;-75
2023/08/12 10:02:51;;;;;;;;;6.33;5.67;;;;;45.43;22.48;100851.22;5035619;28;45509;-76
2023/08/12 10:05:27;;;;;;;;;4.33;4.00;;;;;45.13;23.05;100855.53;5038917;28;45458;-76
2023/08/12 10:07:54;;;;;;;;;5.33;5.00;;;;;45.06;22.84;100837.94;5038973;28;45348;-75
2023/08/12 10:10:22;;;;;;;;;4.67;4.67;;;;;44.78;21.79;100852.03;5037780;28;45728;-75
2023/08/12 10:12:48;;;;;;;;;4.33;4.00;;;;;44.54;22.75;100863.03;5039083;28;45335;-75
2023/08/12 10:15:15;;;;;;;;;5.00;5.00;;;;;44.94;22.56;100866.91;5039196;28;45336;-75
2023/08/12 10:17:41;;;;;;;;;7.00;7.00;;;;;44.91;22.54;100864.47;5037723;28;45564;-75
2023/08/12 10:20:08;;;;;;;;;6.33;6.00;;;;;44.68;22.26;100857.72;5038682;28;45413;-78
2023/08/12 10:22:39;;;;;;;;;5.00;5.00;;;;;44.56;23.44;100841.69;5038115;28;45407;-78
2023/08/12 10:25:11;;;;;;;;;10.67;10.00;;;;;44.35;22.38;100861.38;5038194;28;45317;-77
2023/08/12 10:27:37;;;;;;;;;4.00;3.33;;;;;44.62;22.73;100855.63;5037349;28;45247;-77
2023/08/12 10:30:10;;;;;;;;;6.33;5.67;;;;;44.84;23.28;100864.28;5037948;28;45528;-77
2023/08/12 10:32:36;;;;;;;;;5.33;5.33;;;;;44.90;22.82;100862.78;5037671;28;45288;-76
2023/08/12 10:35:02;;;;;;;;;5.67;5.00;;;;;44.15;22.91;100850.63;5038316;28;45220;-77
2023/08/12 10:37:32;;;;;;;;;4.00;4.00;;;;;43.95;22.70;100857.41;5038532;28;45268;-77
2023/08/12 10:39:58;;;;;;;;;5.00;5.00;;;;;43.65;23.01;100857.72;5038567;28;45893;-77
2023/08/12 10:42:43;;;;;;;;;3.33;3.33;;;;;43.20;23.16;100845.03;5037864;28;45402;-78
2023/08/12 10:45:10;;;;;;;;;2.33;2.33;;;;;43.05;22.24;100852.97;5038506;28;45364;-77
2023/08/12 10:47:44;;;;;;;;;4.67;4.00;;;;;42.00;23.66;100853.47;5038945;28;45365;-77
2023/08/12 10:50:20;;;;;;;;;12.33;12.00;;;;;41.80;24.41;100858.16;5038280;28;45518;-78
2023/08/12 10:52:47;;;;;;;;;4.67;4.67;;;;;41.37;25.41;100835.75;5038050;28;45465;-78
2023/08/12 10:55:23;;;;;;;;;8.00;7.33;;;;;41.57;25.06;100838.44;5038421;28;45483;-77
2023/08/12 10:57:51;;;;;;;;;4.00;4.00;;;;;40.46;25.85;100819.56;5037200;28;45336;-77
2023/08/12 11:00:21;;;;;;;;;4.67;4.67;;;;;40.46;25.89;100840.59;5036803;28;47189;-78
2023/08/12 11:02:56;;;;;;;;;4.00;3.67;;;;;40.54;24.91;100829.81;5037065;28;45477;-77
2023/08/12 11:05:23;;;;;;;;;5.00;4.00;;;;;40.69;25.50;100843.94;5036963;28;45303;-77
2023/08/12 11:08:03;;;;;;;;;3.67;3.33;;;;;40.74;25.48;100841.63;5038083;28;45542;-78
2023/08/12 11:10:32;;;;;;;;;2.67;1.67;;;;;40.75;24.57;100835.19;5037166;28;46575;-78
2023/08/12 11:12:58;;;;;;;;;3.00;2.33;;;;;40.55;25.08;100818.72;5037767;28;45508;-77
2023/08/12 11:15:41;;;;;;;;;4.00;3.00;;;;;40.43;25.00;100829.91;5037909;28;45343;-77